Time;durP1;ratioP1;P1;durP2;ratioP2;P2;SDS_P1;SDS_P2;PMS_P1;PMS_P2;Temp;Humidity;BMP_temperature;BMP_pressure;BME280_temperature;BME280_humidity;BME280_pressure;Samples;Min_cycle;Max_cycle;Signal;HPM_P1;HPM_P2
2022/09/10 00:01:24;;;;;;;3.72;0.88;;;;;;;13.22;100.00;95705.00;4972747;28;24473;-76
2022/09/10 00:03:53;;;;;;;1.38;0.50;;;;;;;13.27;100.00;95694.28;4972677;28;24791;-76
2022/09/10 00:06:19;;;;;;;2.38;0.65;;;;;;;13.38;100.00;95701.28;4972684;28;24519;-76
2022/09/10 00:08:48;;;;;;;1.60;0.73;;;;;;;13.35;100.00;95706.72;4967314;28;24457;-76
2022/09/10 00:11:14;;;;;;;1.35;0.68;;;;;;;13.35;100.00;95709.31;4972607;28;24473;-76
2022/09/10 00:13:42;;;;;;;1.40;0.77;;;;;;;13.27;100.00;95704.69;4970893;28;24460;-76
2022/09/10 00:16:11;;;;;;;2.67;0.70;;;;;;;13.34;100.00;95708.47;4972217;28;24457;-76
2022/09/10 00:18:40;;;;;;;2.28;0.63;;;;;;;13.41;100.00;95694.06;4972094;28;24438;-76
2022/09/10 00:21:10;;;;;;;4.03;0.70;;;;;;;13.45;100.00;95697.28;4972267;28;24449;-75
2022/09/10 00:23:37;;;;;;;2.35;0.60;;;;;;;13.45;100.00;95702.47;4967051;28;24444;-76
2022/09/10 00:26:13;;;;;;;1.73;0.90;;;;;;;13.40;100.00;95720.22;4972259;28;24453;-76
2022/09/10 00:28:40;;;;;;;2.03;0.80;;;;;;;13.39;100.00;95714.19;4966839;28;24991;-76
2022/09/10 00:31:07;;;;;;;1.60;0.70;;;;;;;13.50;100.00;95716.00;4972187;28;24444;-76
2022/09/10 00:33:33;;;;;;;0.82;0.40;;;;;;;13.52;100.00;95708.88;4971787;28;24836;-76
2022/09/10 00:36:04;;;;;;;2.58;0.60;;;;;;;13.53;100.00;95714.00;4972215;28;24445;-76
2022/09/10 00:38:31;;;;;;;1.30;0.60;;;;;;;13.47;100.00;95719.66;4971729;28;25030;-76
2022/09/10 00:41:03;;;;;;;1.42;0.50;;;;;;;13.43;100.00;95707.81;4970330;28;24438;-76
2022/09/10 00:43:47;;;;;;;0.80;0.57;;;;;;;13.50;100.00;95714.22;4971934;28;24437;-76
2022/09/10 00:46:17;;;;;;;0.63;0.40;;;;;;;13.36;100.00;95717.00;4971866;28;24499;-76
2022/09/10 00:48:44;;;;;;;1.25;0.40;;;;;;;13.27;100.00;95721.16;4963602;28;24978;-76
2022/09/10 00:51:12;;;;;;;4.13;0.77;;;;;;;13.09;100.00;95714.66;4971949;28;24438;-76
2022/09/10 00:53:39;;;;;;;2.00;0.70;;;;;;;13.09;100.00;95722.47;4971056;28;24464;-76
2022/09/10 00:56:06;;;;;;;2.58;0.80;;;;;;;13.09;100.00;95725.06;4971853;28;24552;-76
2022/09/10 00:58:32;;;;;;;1.80;0.50;;;;;;;13.09;100.00;95719.88;4971687;28;24532;-76
2022/09/10 01:01:02;;;;;;;1.90;0.70;;;;;;;13.12;100.00;95714.41;4971508;28;24430;-76
2022/09/10 01:03:29;;;;;;;2.55;0.60;;;;;;;12.99;100.00;95711.91;4967220;28;24444;-76
2022/09/10 01:05:57;;;;;;;2.72;0.70;;;;;;;12.95;100.00;95722.66;4971364;28;24444;-76
2022/09/10 01:08:26;;;;;;;1.20;0.57;;;;;;;13.05;100.00;95719.25;4971292;28;24433;-76
2022/09/10 01:11:06;;;;;;;2.00;0.50;;;;;;;12.87;100.00;95730.16;4970797;28;24496;-76
2022/09/10 01:13:52;;;;;;;2.92;0.60;;;;;;;12.93;100.00;95727.09;4971178;28;24449;-76
2022/09/10 01:16:28;;;;;;;2.15;0.50;;;;;;;13.01;100.00;95725.59;4971266;28;24426;-76
2022/09/10 01:19:01;;;;;;;1.65;0.55;;;;;;;12.98;100.00;95727.63;4963503;28;24430;-76
2022/09/10 01:21:34;;;;;;;2.33;0.50;;;;;;;12.85;100.00;95732.88;4971034;28;24449;-77
2022/09/10 01:24:29;;;;;;;2.85;0.65;;;;;;;12.84;100.00;95726.84;4971452;28;24909;-76
2022/09/10 01:27:32;;;;;;;1.33;0.50;;;;;;;12.87;100.00;95727.53;4971325;28;24492;-76
2022/09/10 01:30:06;;;;;;;2.33;0.73;;;;;;;13.04;100.00;95714.97;4968997;28;25003;-77
2022/09/10 01:32:40;;;;;;;2.35;0.85;;;;;;;13.08;100.00;95699.97;4971174;28;24453;-76
2022/09/10 01:35:14;;;;;;;3.28;0.70;;;;;;;13.19;100.00;95700.03;4960863;28;24445;-76
2022/09/10 01:37:45;;;;;;;2.47;0.80;;;;;;;13.35;100.00;95691.09;4963929;28;24433;-77
2022/09/10 01:40:13;;;;;;;3.42;0.63;;;;;;;13.31;100.00;95693.09;4971237;28;24425;-76
2022/09/10 01:42:41;;;;;;;3.17;0.82;;;;;;;13.20;100.00;95701.69;4970747;28;24982;-76
2022/09/10 01:45:12;;;;;;;1.63;0.80;;;;;;;13.05;100.00;95708.88;4971124;28;25355;-77
2022/09/10 01:47:59;;;;;;;1.92;0.70;;;;;;;12.98;100.00;95706.81;4969229;28;24835;-76
2022/09/10 01:50:34;;;;;;;1.33;0.60;;;;;;;12.93;100.00;95693.31;4967477;28;24592;-76
2022/09/10 01:53:14;;;;;;;2.53;0.80;;;;;;;12.93;100.00;95688.13;4967207;28;24448;-76
2022/09/10 01:55:47;;;;;;;2.10;0.90;;;;;;;13.02;100.00;95695.25;4968989;28;24991;-76
2022/09/10 01:58:24;;;;;;;2.40;0.70;;;;;;;12.95;100.00;95686.25;4964788;28;25255;-76
2022/09/10 02:01:02;;;;;;;3.00;0.70;;;;;;;12.88;100.00;95687.63;4970817;28;24436;-76
2022/09/10 02:03:30;;;;;;;2.75;0.70;;;;;;;12.91;100.00;95690.03;4968441;28;24440;-76
2022/09/10 02:05:58;;;;;;;1.92;0.60;;;;;;;12.84;100.00;95692.22;4968576;28;24800;-76
2022/09/10 02:08:30;;;;;;;1.30;0.60;;;;;;;12.87;100.00;95692.00;4971039;28;24460;-76
2022/09/10 02:10:59;;;;;;;2.08;0.55;;;;;;;12.91;100.00;95682.22;4968593;28;24487;-76
2022/09/10 02:13:28;;;;;;;1.83;0.50;;;;;;;12.98;100.00;95680.84;4966468;28;24796;-76
2022/09/10 02:15:58;;;;;;;1.92;0.50;;;;;;;12.84;100.00;95681.84;4963096;28;24545;-76
2022/09/10 02:18:25;;;;;;;2.47;0.73;;;;;;;12.86;100.00;95681.72;4962903;28;24808;-76
2022/09/10 02:20:54;;;;;;;2.53;0.80;;;;;;;12.98;100.00;95675.63;4974309;28;24437;-76
2022/09/10 02:23:26;;;;;;;3.13;0.63;;;;;;;13.01;100.00;95685.78;4969047;28;25034;-76
2022/09/10 02:25:52;;;;;;;1.90;0.60;;;;;;;13.04;100.00;95681.19;4974355;28;24440;-76
2022/09/10 02:28:20;;;;;;;2.50;0.50;;;;;;;12.93;100.00;95678.53;4974474;28;24437;-75
2022/09/10 02:30:47;;;;;;;2.05;0.70;;;;;;;12.90;100.00;95678.75;4974424;28;24438;-76
2022/09/10 02:33:15;;;;;;;1.20;0.50;;;;;;;12.93;100.00;95678.53;4974195;28;24471;-76
2022/09/10 02:35:42;;;;;;;1.73;0.60;;;;;;;12.89;100.00;95681.50;4973895;28;25037;-76
2022/09/10 02:38:10;;;;;;;1.88;0.60;;;;;;;12.91;100.00;95680.44;4974370;28;24438;-76
2022/09/10 02:40:37;;;;;;;1.97;0.80;;;;;;;12.91;100.00;95679.63;4974231;28;24429;-76
2022/09/10 02:43:04;;;;;;;2.10;0.70;;;;;;;12.95;100.00;95681.88;4973672;28;25044;-76
2022/09/10 02:45:30;;;;;;;1.57;0.57;;;;;;;12.92;100.00;95673.47;4973913;28;24429;-76
2022/09/10 02:47:57;;;;;;;3.80;0.70;;;;;;;12.95;100.00;95675.84;4971255;28;24430;-76
2022/09/10 02:50:25;;;;;;;2.72;0.70;;;;;;;12.89;100.00;95671.91;4973895;28;24970;-76
2022/09/10 02:52:52;;;;;;;1.40;0.70;;;;;;;12.86;100.00;95672.13;4973904;28;24453;-76
2022/09/10 02:55:19;;;;;;;4.75;1.10;;;;;;;12.77;100.00;95668.44;4973899;28;25010;-76
2022/09/10 02:57:45;;;;;;;1.35;0.60;;;;;;;12.86;100.00;95668.72;4973944;28;24460;-76
2022/09/10 03:00:12;;;;;;;2.60;0.80;;;;;;;12.89;100.00;95656.31;4973807;28;24471;-76
2022/09/10 03:02:39;;;;;;;1.83;0.52;;;;;;;12.80;100.00;95665.63;4973057;28;24442;-76
2022/09/10 03:05:06;;;;;;;1.40;0.50;;;;;;;12.77;100.00;95665.84;4968644;28;25002;-76
2022/09/10 03:07:34;;;;;;;1.38;0.57;;;;;;;12.72;100.00;95667.97;4973492;28;24444;-76
2022/09/10 03:10:00;;;;;;;3.15;0.60;;;;;;;12.78;100.00;95672.69;4968716;28;24445;-76
2022/09/10 03:12:27;;;;;;;6.05;0.70;;;;;;;12.72;100.00;95674.91;4973173;28;24445;-76
2022/09/10 03:14:53;;;;;;;1.88;0.55;;;;;;;12.74;100.00;95679.06;4972898;28;24460;-76
2022/09/10 03:17:20;;;;;;;2.95;0.70;;;;;;;12.73;100.00;95674.00;4971170;28;25018;-76
2022/09/10 03:19:46;;;;;;;1.00;0.40;;;;;;;12.73;100.00;95674.81;4968689;28;24437;-76
2022/09/10 03:22:13;;;;;;;2.13;0.50;;;;;;;12.78;100.00;95675.28;4972941;28;24493;-76
2022/09/10 03:24:40;;;;;;;1.83;0.55;;;;;;;12.84;100.00;95667.06;4971889;28;24999;-76
2022/09/10 03:27:07;;;;;;;1.30;0.50;;;;;;;12.90;100.00;95672.75;4973659;28;24520;-76
2022/09/10 03:29:33;;;;;;;1.85;0.50;;;;;;;12.92;100.00;95678.66;4973182;28;24496;-76
2022/09/10 03:32:00;;;;;;;2.15;0.50;;;;;;;12.93;100.00;95672.53;4973162;28;25002;-76
2022/09/10 03:34:26;;;;;;;2.28;0.65;;;;;;;12.93;100.00;95672.53;4973321;28;24464;-76
2022/09/10 03:36:53;;;;;;;1.13;0.50;;;;;;;12.95;100.00;95670.66;4973309;28;24445;-76
2022/09/10 03:39:20;;;;;;;1.52;0.57;;;;;;;12.92;100.00;95674.28;4973060;28;24426;-76
2022/09/10 03:41:48;;;;;;;1.60;0.60;;;;;;;12.88;100.00;95672.03;4972397;28;25006;-76
2022/09/10 03:44:16;;;;;;;2.08;0.73;;;;;;;12.86;100.00;95668.72;4971276;28;24445;-76
2022/09/10 03:46:42;;;;;;;3.10;0.50;;;;;;;12.76;100.00;95665.97;4972622;28;24473;-76
2022/09/10 03:49:09;;;;;;;4.57;0.60;;;;;;;12.78;100.00;95667.50;4972844;28;24429;-76
2022/09/10 03:51:35;;;;;;;0.85;0.50;;;;;;;12.76;100.00;95663.38;4971948;28;25324;-76
2022/09/10 03:54:02;;;;;;;2.83;0.65;;;;;;;12.70;100.00;95666.41;4972904;28;24450;-76
2022/09/10 03:56:28;;;;;;;1.38;0.63;;;;;;;12.58;100.00;95662.94;4972476;28;24819;-76
2022/09/10 03:58:56;;;;;;;1.73;0.50;;;;;;;12.51;100.00;95659.13;4967692;28;24457;-76
2022/09/10 04:01:23;;;;;;;1.92;0.63;;;;;;;12.51;100.00;95662.56;4969510;28;24512;-76
2022/09/10 04:03:50;;;;;;;2.47;0.82;;;;;;;12.48;100.00;95661.94;4972331;28;24433;-76
2022/09/10 04:06:16;;;;;;;1.67;0.68;;;;;;;12.49;100.00;95663.59;4971422;28;24438;-76
2022/09/10 04:08:43;;;;;;;1.63;0.75;;;;;;;12.47;100.00;95660.28;4972346;28;24429;-76
2022/09/10 04:11:09;;;;;;;1.75;0.55;;;;;;;12.50;100.00;95660.06;4972278;28;24437;-76
2022/09/10 04:13:36;;;;;;;1.15;0.60;;;;;;;12.49;100.00;95666.19;4972220;28;24468;-76
2022/09/10 04:16:04;;;;;;;2.40;0.60;;;;;;;12.57;100.00;95664.72;4972349;28;24460;-76
2022/09/10 04:18:33;;;;;;;1.38;0.50;;;;;;;12.46;100.00;95666.41;4972310;28;24520;-76
2022/09/10 04:21:00;;;;;;;4.00;0.90;;;;;;;12.39;100.00;95668.63;4967006;28;24496;-76
2022/09/10 04:23:28;;;;;;;2.45;0.90;;;;;;;12.39;100.00;95665.22;4971914;28;24440;-76
2022/09/10 04:25:55;;;;;;;0.82;0.50;;;;;;;12.32;100.00;95654.44;4963234;28;25481;-76
2022/09/10 04:28:22;;;;;;;1.13;0.35;;;;;;;12.36;100.00;95666.25;4971776;28;24477;-76
2022/09/10 04:30:50;;;;;;;1.50;0.60;;;;;;;12.37;100.00;95662.72;4972411;28;24444;-75
2022/09/10 04:33:18;;;;;;;2.10;0.60;;;;;;;12.40;100.00;95659.91;4972154;28;24800;-75
2022/09/10 04:35:44;;;;;;;2.00;0.70;;;;;;;12.45;100.00;95672.53;4968627;28;24458;-75
2022/09/10 04:38:11;;;;;;;0.85;0.40;;;;;;;12.48;100.00;95667.97;4972195;28;24448;-75
2022/09/10 04:40:38;;;;;;;5.80;0.70;;;;;;;12.56;100.00;95672.59;4963951;28;24441;-75
2022/09/10 04:43:04;;;;;;;2.42;0.80;;;;;;;12.51;100.00;95678.13;4971913;28;24500;-75
2022/09/10 04:45:32;;;;;;;1.27;0.40;;;;;;;12.48;100.00;95686.16;4963732;28;24480;-75
2022/09/10 04:47:59;;;;;;;2.53;0.60;;;;;;;12.44;100.00;95689.06;4963699;28;24457;-75
2022/09/10 04:50:26;;;;;;;1.15;0.50;;;;;;;12.53;100.00;95684.06;4967757;28;24963;-75
2022/09/10 04:52:53;;;;;;;1.40;0.40;;;;;;;12.58;100.00;95686.31;4968165;28;24457;-75
2022/09/10 04:55:19;;;;;;;1.27;0.70;;;;;;;12.55;100.00;95691.72;4963524;28;24464;-75
2022/09/10 04:57:46;;;;;;;2.00;0.60;;;;;;;12.73;100.00;95692.19;4970590;28;24440;-75
2022/09/10 05:00:13;;;;;;;2.10;0.57;;;;;;;12.69;100.00;95690.75;4973701;28;25021;-75
2022/09/10 05:02:39;;;;;;;0.45;0.28;;;;;;;12.78;100.00;95688.28;4969731;28;24529;-75
2022/09/10 05:05:07;;;;;;;1.50;0.30;;;;;;;12.84;100.00;95693.06;4969130;28;24441;-75
2022/09/10 05:07:35;;;;;;;1.63;0.50;;;;;;;12.89;100.00;95695.31;4971507;28;24440;-76
2022/09/10 05:10:01;;;;;;;1.40;0.47;;;;;;;12.92;100.00;95699.47;4971350;28;24441;-75
2022/09/10 05:12:28;;;;;;;3.55;0.60;;;;;;;12.93;100.00;95693.31;4970777;28;24442;-75
2022/09/10 05:14:54;;;;;;;1.10;0.40;;;;;;;12.95;100.00;95697.47;4968136;28;24442;-75
2022/09/10 05:17:21;;;;;;;1.83;0.40;;;;;;;12.86;100.00;95702.50;4971146;28;24437;-75
2022/09/10 05:19:47;;;;;;;0.70;0.40;;;;;;;12.84;100.00;95700.03;4971330;28;24804;-75
2022/09/10 05:22:14;;;;;;;2.00;0.50;;;;;;;12.89;100.00;95697.09;4965706;28;24455;-76
2022/09/10 05:24:42;;;;;;;0.30;0.20;;;;;;;12.95;100.00;95700.06;4971796;28;24453;-75
2022/09/10 05:27:09;;;;;;;1.40;0.43;;;;;;;13.01;100.00;95697.00;4971165;28;25041;-75
2022/09/10 05:29:35;;;;;;;0.52;0.30;;;;;;;13.00;100.00;95702.31;4971444;28;24441;-76
2022/09/10 05:32:02;;;;;;;1.30;0.50;;;;;;;13.07;100.00;95709.56;4971210;28;24465;-76
2022/09/10 05:34:29;;;;;;;1.50;0.38;;;;;;;13.13;100.00;95702.28;4967594;28;25010;-75
2022/09/10 05:36:55;;;;;;;0.88;0.47;;;;;;;13.07;100.00;95708.75;4971170;28;24453;-75
2022/09/10 05:39:22;;;;;;;1.50;0.52;;;;;;;13.01;100.00;95706.56;4970673;28;24432;-76
2022/09/10 05:41:49;;;;;;;1.05;0.40;;;;;;;13.08;100.00;95715.59;4968712;28;24811;-76
2022/09/10 05:44:16;;;;;;;1.33;0.52;;;;;;;13.05;100.00;95713.19;4971342;28;24444;-75
2022/09/10 05:46:43;;;;;;;1.52;0.40;;;;;;;12.97;100.00;95716.38;4968704;28;24448;-74
2022/09/10 05:49:11;;;;;;;1.23;0.45;;;;;;;13.04;100.00;95709.78;4965090;28;24446;-74
2022/09/10 05:51:38;;;;;;;0.82;0.45;;;;;;;13.02;100.00;95716.06;4961587;28;24896;-74
2022/09/10 05:54:05;;;;;;;1.00;0.50;;;;;;;13.10;100.00;95712.88;4965900;28;24541;-74
2022/09/10 05:56:31;;;;;;;0.70;0.40;;;;;;;13.05;100.00;95703.66;4968176;28;24457;-74
2022/09/10 05:58:59;;;;;;;1.57;0.40;;;;;;;13.01;100.00;95709.19;4971116;28;24453;-74
2022/09/10 06:01:27;;;;;;;1.98;0.52;;;;;;;12.95;100.00;95707.88;4961818;28;24438;-74
2022/09/10 06:03:53;;;;;;;1.27;0.55;;;;;;;12.96;100.00;95709.53;4974528;28;24532;-74
2022/09/10 06:06:20;;;;;;;1.87;0.50;;;;;;;12.93;100.00;95716.72;4963712;28;24438;-74
2022/09/10 06:08:50;;;;;;;1.48;0.65;;;;;;;13.06;100.00;95717.47;4969631;28;24437;-74
2022/09/10 06:11:17;;;;;;;0.80;0.43;;;;;;;13.17;100.00;95714.09;4969443;28;24473;-74
2022/09/10 06:13:44;;;;;;;1.35;0.50;;;;;;;13.13;100.00;95721.28;4967433;28;24493;-74
2022/09/10 06:16:12;;;;;;;1.15;0.50;;;;;;;13.21;100.00;95721.56;4959545;28;24461;-74
2022/09/10 06:18:39;;;;;;;8.18;0.60;;;;;;;13.20;100.00;95722.50;4968130;28;24962;-74
2022/09/10 06:21:07;;;;;;;1.00;0.40;;;;;;;13.25;100.00;95728.22;4970328;28;24445;-74
2022/09/10 06:23:34;;;;;;;2.05;0.50;;;;;;;13.20;100.00;95725.09;4967935;28;24465;-74
2022/09/10 06:26:03;;;;;;;1.02;0.47;;;;;;;13.14;100.00;95728.16;4970297;28;25086;-74
2022/09/10 06:28:30;;;;;;;2.28;0.40;;;;;;;13.10;100.00;95731.91;4970255;28;25017;-74
2022/09/10 06:30:56;;;;;;;0.85;0.45;;;;;;;13.12;100.00;95726.59;4965440;28;24444;-74
2022/09/10 06:33:24;;;;;;;0.90;0.40;;;;;;;13.11;100.00;95722.34;4969536;28;24452;-74
2022/09/10 06:35:55;;;;;;;1.20;0.20;;;;;;;13.17;100.00;95720.13;4961622;28;24449;-74
2022/09/10 06:38:22;;;;;;;1.25;0.30;;;;;;;13.17;100.00;95716.69;4970449;28;24531;-74
2022/09/10 06:40:54;;;;;;;1.52;0.40;;;;;;;13.17;100.00;95719.31;4969405;28;24442;-74
2022/09/10 06:43:22;;;;;;;1.00;0.40;;;;;;;13.19;100.00;95715.63;4968553;28;24469;-74
2022/09/10 06:45:49;;;;;;;0.77;0.40;;;;;;;13.29;100.00;95721.00;4970043;28;24528;-74
2022/09/10 06:48:17;;;;;;;0.87;0.50;;;;;;;13.28;100.00;95724.56;4964312;28;24528;-74
2022/09/10 06:50:52;;;;;;;1.98;0.57;;;;;;;13.40;100.00;95735.81;4966069;28;24496;-74
2022/09/10 06:53:20;;;;;;;1.67;0.40;;;;;;;13.40;100.00;95734.06;4972489;28;24449;-74
2022/09/10 06:55:47;;;;;;;2.72;0.60;;;;;;;13.48;100.00;95736.06;4973420;28;24545;-74
2022/09/10 06:58:13;;;;;;;1.80;0.40;;;;;;;13.51;100.00;95741.06;4973570;28;24562;-74
2022/09/10 07:00:40;;;;;;;2.40;0.52;;;;;;;13.40;100.00;95744.47;4969707;28;24444;-74
2022/09/10 07:03:06;;;;;;;1.52;0.52;;;;;;;13.43;100.00;95748.59;4972569;28;24452;-74
2022/09/10 07:05:33;;;;;;;1.13;0.53;;;;;;;13.41;100.00;95746.09;4973070;28;24521;-74
2022/09/10 07:08:01;;;;;;;3.38;0.70;;;;;;;13.38;100.00;95754.13;4972539;28;24478;-75
2022/09/10 07:10:30;;;;;;;1.73;0.60;;;;;;;13.43;100.00;95757.25;4965093;28;24987;-74
2022/09/10 07:12:56;;;;;;;2.63;0.60;;;;;;;13.52;100.00;95753.94;4965689;28;24448;-74
2022/09/10 07:15:23;;;;;;;0.77;0.40;;;;;;;13.50;100.00;95755.84;4971380;28;25037;-74
2022/09/10 07:17:50;;;;;;;0.98;0.50;;;;;;;13.49;100.00;95754.16;4972991;28;24994;-74
2022/09/10 07:20:16;;;;;;;4.10;0.68;;;;;;;13.46;100.00;95758.75;4971423;28;24448;-74
2022/09/10 07:22:43;;;;;;;1.37;0.40;;;;;;;13.58;100.00;95760.47;4971602;28;24448;-74
2022/09/10 07:25:11;;;;;;;2.80;0.55;;;;;;;13.53;100.00;95760.81;4972060;28;24520;-76
2022/09/10 07:27:38;;;;;;;1.05;0.45;;;;;;;13.78;100.00;95758.97;4972033;28;24438;-77
2022/09/10 07:30:05;;;;;;;2.95;0.68;;;;;;;14.08;100.00;95757.56;4978737;28;24791;-77
2022/09/10 07:32:33;;;;;;;1.65;0.52;;;;;;;14.26;100.00;95770.00;4973080;28;24447;-77
2022/09/10 07:35:00;;;;;;;1.10;0.47;;;;;;;14.41;100.00;95769.75;4973045;28;24917;-77
2022/09/10 07:37:26;;;;;;;2.50;0.55;;;;;;;14.88;100.00;95776.47;4972663;28;24552;-77
2022/09/10 07:39:53;;;;;;;1.48;0.50;;;;;;;15.16;100.00;95780.28;4973090;28;24429;-77
2022/09/10 07:42:21;;;;;;;1.40;0.65;;;;;;;15.46;100.00;95784.81;4970280;28;24429;-77
2022/09/10 07:44:48;;;;;;;1.77;0.50;;;;;;;15.52;100.00;95775.63;4972601;28;24527;-76
2022/09/10 07:47:15;;;;;;;1.50;0.68;;;;;;;15.73;100.00;95778.31;4972546;28;24446;-76
2022/09/10 07:49:42;;;;;;;2.80;0.68;;;;;;;16.00;100.00;95788.22;4975407;28;24441;-78
2022/09/10 07:52:09;;;;;;;2.15;0.75;;;;;;;15.87;100.00;95787.56;4974720;28;24528;-78
2022/09/10 07:54:35;;;;;;;3.85;0.50;;;;;;;16.14;100.00;95785.25;4975347;28;24445;-78
2022/09/10 07:57:02;;;;;;;2.70;0.68;;;;;;;16.15;100.00;95786.09;4975978;28;24460;-78
2022/09/10 07:59:29;;;;;;;5.70;0.65;;;;;;;16.36;100.00;95796.50;4980734;28;24438;-78
2022/09/10 08:01:58;;;;;;;2.27;0.70;;;;;;;16.31;100.00;95798.66;4982549;28;24446;-78
2022/09/10 08:04:24;;;;;;;2.60;0.80;;;;;;;16.27;100.00;95797.28;4972764;28;24520;-80
2022/09/10 08:06:51;;;;;;;2.30;0.70;;;;;;;16.46;100.00;95794.75;4973793;28;24436;-80
2022/09/10 08:09:18;;;;;;;2.40;0.85;;;;;;;16.39;100.00;95806.72;4973224;28;25041;-78
2022/09/10 08:11:45;;;;;;;3.20;0.80;;;;;;;16.39;100.00;95801.50;4974810;28;24442;-78
2022/09/10 08:14:13;;;;;;;2.97;0.82;;;;;;;16.21;100.00;95798.66;4973846;28;24446;-79
2022/09/10 08:16:40;;;;;;;3.20;1.00;;;;;;;15.96;100.00;95810.31;4973562;28;24445;-79
2022/09/10 08:19:09;;;;;;;5.03;0.75;;;;;;;15.81;100.00;95809.00;4963262;28;24446;-78
2022/09/10 08:21:35;;;;;;;2.65;0.90;;;;;;;15.89;100.00;95804.78;4972869;28;24986;-77
2022/09/10 08:24:03;;;;;;;3.78;0.90;;;;;;;15.78;100.00;95810.06;4969521;28;24442;-79
2022/09/10 08:26:32;;;;;;;2.42;0.80;;;;;;;15.46;100.00;95807.44;4975288;28;24488;-77
2022/09/10 08:28:59;;;;;;;1.65;0.70;;;;;;;15.32;100.00;95823.44;4972010;28;24514;-76
2022/09/10 08:31:25;;;;;;;4.40;1.00;;;;;;;15.29;100.00;95818.44;4973405;28;24446;-75
2022/09/10 08:33:55;;;;;;;2.22;0.73;;;;;;;15.32;100.00;95820.81;4971518;28;24887;-75
2022/09/10 08:36:23;;;;;;;3.58;1.20;;;;;;;15.27;100.00;95825.56;4968968;28;25342;-75
2022/09/10 08:38:50;;;;;;;4.38;1.15;;;;;;;15.30;100.00;95828.75;4969667;28;24533;-76
2022/09/10 08:41:27;;;;;;;4.10;1.00;;;;;;;15.21;100.00;95821.69;4971177;28;24442;-75
2022/09/10 08:43:57;;;;;;;4.13;1.20;;;;;;;15.16;100.00;95826.41;4964280;28;24482;-76
2022/09/10 08:46:26;;;;;;;3.72;0.70;;;;;;;15.16;100.00;95831.63;4971124;28;24426;-76
2022/09/10 08:49:04;;;;;;;2.40;0.77;;;;;;;15.17;100.00;95831.53;4971380;28;24448;-75
2022/09/10 08:51:40;;;;;;;2.63;1.00;;;;;;;15.12;100.00;95831.06;4971236;28;24433;-75
2022/09/10 08:54:13;;;;;;;2.33;0.90;;;;;;;15.17;100.00;95838.53;4970786;28;24532;-75
2022/09/10 08:56:41;;;;;;;3.83;0.77;;;;;;;15.17;100.00;95831.53;4971401;28;24457;-75
2022/09/10 08:59:20;;;;;;;3.15;0.93;;;;;;;15.07;100.00;95838.44;4970021;28;24933;-75
2022/09/10 09:01:51;;;;;;;2.78;0.70;;;;;;;15.01;100.00;95837.13;4965598;28;24828;-76
2022/09/10 09:04:32;;;;;;;4.90;0.88;;;;;;;14.97;100.00;95838.31;4966665;28;24995;-75
2022/09/10 09:07:01;;;;;;;3.15;0.70;;;;;;;14.87;100.00;95834.81;4970557;28;24440;-75
2022/09/10 09:09:27;;;;;;;5.43;0.97;;;;;;;14.85;100.00;95835.84;4970573;28;24449;-75
2022/09/10 09:12:02;;;;;;;3.15;0.77;;;;;;;14.84;100.00;95831.59;4969159;28;24438;-75
2022/09/10 09:14:44;;;;;;;3.43;0.80;;;;;;;14.91;100.00;95838.00;4970379;28;24891;-75
2022/09/10 09:17:36;;;;;;;2.67;0.85;;;;;;;15.07;100.00;95835.81;4968544;28;24453;-75
2022/09/10 09:20:14;;;;;;;5.47;1.00;;;;;;;15.20;100.00;95833.91;4963593;28;24441;-75
2022/09/10 09:22:50;;;;;;;3.95;1.17;;;;;;;15.20;100.00;95833.91;4968854;28;25041;-76
2022/09/10 09:25:23;;;;;;;3.50;1.00;;;;;;;15.31;100.00;95829.56;4970272;28;24437;-74
2022/09/10 09:27:51;;;;;;;4.07;0.90;;;;;;;15.18;100.00;95825.34;4967754;28;24892;-75
2022/09/10 09:30:22;;;;;;;1.83;0.60;;;;;;;15.23;100.00;95832.81;4970247;28;24441;-74
2022/09/10 09:32:49;;;;;;;1.85;0.68;;;;;;;15.31;100.00;95830.41;4970382;28;24438;-74
2022/09/10 09:35:25;;;;;;;3.05;0.82;;;;;;;15.18;100.00;95829.75;4970391;28;24441;-74
2022/09/10 09:38:03;;;;;;;3.17;1.10;;;;;;;15.32;100.00;95839.09;4970239;28;24816;-74
2022/09/10 09:40:35;;;;;;;2.45;0.85;;;;;;;15.29;100.00;95840.16;4970993;28;25014;-74
2022/09/10 09:43:09;;;;;;;5.30;0.90;;;;;;;15.33;100.00;95827.69;4966603;28;24445;-75
2022/09/10 09:45:38;;;;;;;4.40;1.67;;;;;;;15.36;100.00;95832.66;4966323;28;24442;-74
2022/09/10 09:48:06;;;;;;;4.20;1.48;;;;;;;15.31;100.00;95834.78;4970712;28;24433;-74
2022/09/10 09:50:38;;;;;;;3.05;0.98;;;;;;;15.44;100.00;95836.31;4970535;28;25078;-74
2022/09/10 09:53:04;;;;;;;3.40;0.80;;;;;;;15.54;100.00;95836.41;4970314;28;24477;-75
2022/09/10 09:55:37;;;;;;;2.40;0.80;;;;;;;15.76;100.00;95826.81;4964712;28;24449;-75
2022/09/10 09:58:35;;;;;;;5.10;1.00;;;;;;;15.61;100.00;95831.47;4965057;28;24551;-75
2022/09/10 10:01:15;;;;;;;2.30;0.70;;;;;;;15.70;100.00;95846.44;4965621;28;24477;-75
2022/09/10 10:03:53;;;;;;;2.37;0.70;;;;;;;15.57;100.00;95835.28;4968610;28;24449;-74
2022/09/10 10:06:24;;;;;;;2.72;0.93;;;;;;;15.51;100.00;95835.81;4968485;28;24529;-75
2022/09/10 10:08:57;;;;;;;3.22;0.90;;;;;;;15.65;100.00;95827.69;4969331;28;24446;-74
2022/09/10 10:11:45;;;;;;;1.35;0.60;;;;;;;15.82;100.00;95823.69;4970386;28;24448;-74
2022/09/10 10:14:21;;;;;;;3.17;0.75;;;;;;;15.89;100.00;95835.28;4964773;28;24433;-74
2022/09/10 10:16:51;;;;;;;2.07;0.80;;;;;;;16.03;100.00;95828.94;4970181;28;24548;-74
2022/09/10 10:19:30;;;;;;;2.50;0.80;;;;;;;16.21;100.00;95828.22;4970264;28;24536;-74
2022/09/10 10:22:18;;;;;;;1.45;0.52;;;;;;;16.62;100.00;95826.47;4958587;28;24468;-74
2022/09/10 10:24:47;;;;;;;1.83;0.65;;;;;;;16.96;100.00;95826.19;4970290;28;25014;-74
2022/09/10 10:27:16;;;;;;;2.70;0.57;;;;;;;17.09;100.00;95816.31;4968749;28;24440;-74
2022/09/10 10:29:52;;;;;;;1.00;0.40;;;;;;;17.38;100.00;95818.94;4974464;28;24445;-75
2022/09/10 10:32:19;;;;;;;2.33;0.63;;;;;;;17.63;98.54;95822.00;4973669;28;24464;-75
2022/09/10 10:34:59;;;;;;;1.42;0.60;;;;;;;17.65;96.28;95818.28;4973466;28;24437;-75
2022/09/10 10:37:35;;;;;;;1.30;0.55;;;;;;;17.53;95.92;95818.53;4973743;28;25078;-75
2022/09/10 10:40:17;;;;;;;1.90;0.77;;;;;;;17.23;92.50;95819.50;4964115;28;25002;-75
2022/09/10 10:42:53;;;;;;;5.68;0.82;;;;;;;17.24;94.49;95810.66;4972450;28;24437;-75
2022/09/10 10:45:36;;;;;;;1.88;0.80;;;;;;;17.49;93.14;95814.56;4971920;28;24440;-74
2022/09/10 10:48:10;;;;;;;2.53;0.77;;;;;;;17.65;89.57;95805.19;4966398;28;24429;-75
2022/09/10 10:50:47;;;;;;;1.50;0.60;;;;;;;17.39;91.10;95806.69;4973450;28;24445;-75
2022/09/10 10:53:24;;;;;;;4.03;1.23;;;;;;;17.34;90.53;95804.47;4967900;28;24445;-75
2022/09/10 10:55:58;;;;;;;2.78;1.08;;;;;;;17.31;91.98;95804.75;4972777;28;25092;-74
2022/09/10 10:58:45;;;;;;;1.95;0.77;;;;;;;17.45;91.66;95806.16;4963393;28;24446;-74
2022/09/10 11:01:19;;;;;;;3.47;1.10;;;;;;;17.63;91.06;95804.47;4965541;28;24533;-75
2022/09/10 11:03:53;;;;;;;7.32;1.17;;;;;;;17.37;90.04;95787.69;4972870;28;25017;-75
2022/09/10 11:06:23;;;;;;;6.55;1.00;;;;;;;17.00;90.73;95801.41;4969057;28;24438;-75
2022/09/10 11:08:56;;;;;;;3.90;1.20;;;;;;;17.39;92.66;95790.97;4972974;28;24524;-74
2022/09/10 11:11:28;;;;;;;3.33;0.82;;;;;;;17.54;91.18;95791.38;4972916;28;24451;-75
2022/09/10 11:14:00;;;;;;;4.00;1.27;;;;;;;17.50;91.46;95790.88;4971897;28;24453;-75
2022/09/10 11:16:33;;;;;;;4.05;0.93;;;;;;;17.60;90.62;95791.66;4973085;28;24444;-75
2022/09/10 11:19:05;;;;;;;2.30;0.82;;;;;;;17.87;89.42;95784.91;4963345;28;24476;-75
2022/09/10 11:21:38;;;;;;;3.00;0.90;;;;;;;17.92;87.54;95789.75;4969865;28;24521;-75
2022/09/10 11:24:13;;;;;;;2.45;1.00;;;;;;;17.98;85.59;95797.03;4973165;28;24461;-75
2022/09/10 11:26:44;;;;;;;2.17;0.80;;;;;;;18.11;83.93;95793.13;4972833;28;25037;-75
2022/09/10 11:29:27;;;;;;;2.58;0.95;;;;;;;18.16;86.24;95802.38;4963899;28;24796;-75
2022/09/10 11:31:59;;;;;;;3.37;1.10;;;;;;;18.33;85.01;95791.16;4972575;28;24816;-75
2022/09/10 11:34:33;;;;;;;3.72;0.80;;;;;;;18.46;84.23;95801.31;4969001;28;24441;-75
2022/09/10 11:37:06;;;;;;;2.97;0.93;;;;;;;18.40;81.50;95792.22;4966885;28;24545;-75
2022/09/10 11:39:37;;;;;;;2.03;0.90;;;;;;;18.21;84.10;95792.31;4964423;28;24445;-75